createdAt,value
2018-05-07T00:01:09.209Z,3.40
2018-05-07T00:03:37.480Z,3.03
2018-05-07T00:06:06.271Z,3.53
2018-05-07T00:08:35.362Z,3.40
2018-05-07T00:11:03.725Z,3.47
2018-05-07T00:13:32.087Z,3.97
2018-05-07T00:16:01.175Z,3.90
2018-05-07T00:18:29.478Z,3.53
2018-05-07T00:20:57.778Z,3.90
2018-05-07T00:23:26.123Z,3.30
2018-05-07T00:25:55.253Z,3.90
2018-05-07T00:28:23.684Z,3.60
2018-05-07T00:30:51.987Z,3.80
2018-05-07T00:33:20.426Z,4.47
2018-05-07T00:35:48.836Z,3.93
2018-05-07T00:38:18.339Z,4.40
2018-05-07T00:40:47.485Z,3.70
2018-05-07T00:43:16.266Z,3.50
2018-05-07T00:45:44.577Z,4.83
2018-05-07T00:48:12.905Z,4.73
2018-05-07T00:50:41.716Z,4.00
2018-05-07T00:53:10.055Z,4.00
2018-05-07T00:55:38.392Z,4.10
2018-05-07T00:58:06.768Z,4.33
2018-05-07T01:00:35.912Z,3.40
2018-05-07T01:03:05.087Z,4.10
2018-05-07T01:05:34.190Z,3.60
2018-05-07T01:08:03.307Z,3.83
2018-05-07T01:10:31.680Z,4.10
2018-05-07T01:13:00.090Z,3.93
2018-05-07T01:15:28.389Z,3.80
2018-05-07T01:17:56.720Z,4.23
2018-05-07T01:20:25.055Z,4.00
2018-05-07T01:22:53.362Z,3.77
2018-05-07T01:25:22.469Z,3.60
2018-05-07T01:27:50.801Z,3.90
2018-05-07T01:30:20.234Z,4.47
2018-05-07T01:32:53.711Z,3.70
2018-05-07T01:35:22.431Z,3.77
2018-05-07T01:37:50.798Z,3.73
2018-05-07T01:40:20.134Z,3.60
2018-05-07T01:42:48.489Z,3.77
2018-05-07T01:45:17.606Z,3.80
2018-05-07T01:47:46.026Z,3.70
2018-05-07T01:50:18.592Z,4.23
2018-05-07T01:52:46.925Z,3.90
2018-05-07T01:55:16.039Z,3.63
2018-05-07T01:57:44.382Z,3.83
2018-05-07T02:00:13.684Z,2.93
2018-05-07T02:02:42.148Z,3.30
2018-05-07T02:05:10.451Z,3.50
2018-05-07T02:07:39.564Z,2.63
2018-05-07T02:10:07.880Z,3.33
2018-05-07T02:12:36.222Z,3.20
2018-05-07T02:15:04.639Z,2.97
2018-05-07T02:17:32.942Z,2.60
2018-05-07T02:20:01.259Z,2.93
2018-05-07T02:22:29.644Z,3.03
2018-05-07T02:24:57.924Z,3.00
2018-05-07T02:27:26.688Z,2.93
2018-05-07T02:29:56.544Z,3.00
2018-05-07T02:32:25.103Z,2.87
2018-05-07T02:34:53.470Z,3.13
2018-05-07T02:37:21.780Z,3.10
2018-05-07T02:39:50.105Z,2.97
2018-05-07T02:42:18.417Z,2.60
2018-05-07T02:44:46.723Z,3.00
2018-05-07T02:47:15.356Z,3.13
2018-05-07T02:49:44.865Z,3.57
2018-05-07T02:52:14.031Z,3.20
2018-05-07T02:54:43.039Z,3.23
2018-05-07T02:57:12.822Z,3.17
2018-05-07T02:59:41.235Z,3.47
2018-05-07T03:02:10.364Z,3.30
2018-05-07T03:04:38.736Z,3.17
2018-05-07T03:07:07.092Z,3.30
2018-05-07T03:09:36.217Z,3.67
2018-05-07T03:12:04.658Z,3.97
2018-05-07T03:14:33.155Z,3.67
2018-05-07T03:17:02.262Z,3.40
2018-05-07T03:19:31.540Z,3.60
2018-05-07T03:22:00.709Z,3.53
2018-05-07T03:24:29.853Z,3.47
2018-05-07T03:26:58.956Z,3.93
2018-05-07T03:29:28.263Z,4.33
2018-05-07T03:31:56.590Z,3.73
2018-05-07T03:34:25.054Z,4.43
2018-05-07T03:39:29.040Z,4.33
2018-05-07T03:41:57.444Z,4.40
2018-05-07T03:44:25.834Z,5.20
2018-05-07T03:46:55.058Z,4.80
2018-05-07T03:49:24.184Z,4.90
2018-05-07T03:51:53.380Z,4.50
2018-05-07T03:54:21.986Z,5.20
2018-05-07T03:56:50.449Z,4.57
2018-05-07T03:59:19.593Z,4.93
2018-05-07T04:01:47.923Z,4.77
2018-05-07T04:04:16.309Z,5.40
2018-05-07T04:06:49.675Z,4.83
2018-05-07T04:09:18.113Z,5.37
2018-05-07T04:11:46.504Z,4.90
2018-05-07T04:14:14.852Z,5.17
2018-05-07T04:20:16.184Z,5.27
2018-05-07T04:23:02.563Z,4.80
2018-05-07T04:25:30.841Z,4.83
2018-05-07T04:27:59.228Z,4.83
2018-05-07T04:30:28.333Z,4.47
2018-05-07T04:32:56.735Z,4.40
2018-05-07T04:35:25.867Z,4.17
2018-05-07T04:37:54.264Z,3.53
2018-05-07T04:40:22.644Z,3.60
2018-05-07T04:42:51.790Z,3.57
2018-05-07T04:45:20.908Z,3.47
2018-05-07T04:47:49.228Z,3.57
2018-05-07T04:50:17.546Z,3.30
2018-05-07T04:52:46.664Z,3.40
2018-05-07T04:55:15.074Z,3.20
2018-05-07T04:57:43.427Z,3.63
2018-05-07T05:00:11.756Z,3.53
2018-05-07T05:02:40.076Z,3.70
2018-05-07T05:05:08.488Z,3.70
2018-05-07T05:07:37.209Z,3.43
2018-05-07T05:10:05.624Z,3.40
2018-05-07T05:12:33.997Z,3.27
2018-05-07T05:15:02.408Z,3.23
2018-05-07T05:17:30.705Z,3.77
2018-05-07T05:19:58.999Z,3.10
2018-05-07T05:22:27.314Z,2.87
2018-05-07T05:24:55.729Z,2.97
2018-05-07T05:27:24.072Z,3.10
2018-05-07T05:29:52.383Z,2.60
2018-05-07T05:32:20.732Z,2.90
2018-05-07T05:34:49.131Z,2.87
2018-05-07T05:37:18.376Z,2.50
2018-05-07T05:39:46.710Z,2.90
2018-05-07T05:42:15.182Z,2.60
2018-05-07T05:44:43.505Z,2.80
2018-05-07T05:47:12.597Z,2.90
2018-05-07T05:49:41.576Z,2.77
2018-05-07T05:52:09.934Z,2.83
2018-05-07T05:54:38.928Z,2.87
2018-05-07T05:57:07.377Z,3.00
2018-05-07T05:59:35.844Z,3.33
2018-05-07T06:02:04.329Z,2.80
2018-05-07T06:04:33.431Z,3.00
2018-05-07T06:07:06.710Z,2.93
2018-05-07T06:09:35.073Z,3.00
2018-05-07T06:12:03.372Z,2.73
2018-05-07T06:14:31.830Z,2.80
2018-05-07T06:17:00.098Z,2.70
2018-05-07T06:19:28.449Z,2.37
2018-05-07T06:21:56.789Z,2.60
2018-05-07T06:24:25.934Z,2.50
2018-05-07T06:26:54.337Z,2.60
2018-05-07T06:29:22.721Z,2.90
2018-05-07T06:31:51.881Z,2.40
2018-05-07T06:34:20.750Z,2.77
2018-05-07T06:36:49.043Z,2.87
2018-05-07T06:39:17.352Z,2.73
2018-05-07T06:41:45.681Z,2.63
2018-05-07T06:44:14.817Z,2.80
2018-05-07T06:46:43.129Z,2.70
2018-05-07T06:49:11.392Z,3.10
2018-05-07T06:51:39.681Z,3.00
2018-05-07T06:54:07.992Z,2.53
2018-05-07T06:56:36.365Z,2.92
2018-05-07T06:59:05.515Z,2.12
2018-05-07T07:01:38.116Z,2.75
2018-05-07T07:04:06.477Z,2.60
2018-05-07T07:06:34.829Z,2.58
2018-05-07T07:09:03.138Z,2.50
2018-05-07T07:11:31.464Z,2.62
2018-05-07T07:14:00.552Z,2.50
2018-05-07T07:16:29.753Z,2.83
2018-05-07T07:18:58.110Z,2.70
2018-05-07T07:21:27.247Z,3.30
2018-05-07T07:23:55.562Z,2.72
2018-05-07T07:26:23.955Z,2.65
2018-05-07T07:28:52.344Z,2.78
2018-05-07T07:31:20.651Z,2.83
2018-05-07T07:33:49.176Z,2.80
2018-05-07T07:36:17.529Z,3.00
2018-05-07T07:38:45.844Z,2.92
2018-05-07T07:41:14.181Z,3.37
2018-05-07T07:43:42.848Z,2.55
2018-05-07T07:46:11.927Z,3.00
2018-05-07T07:48:40.238Z,2.85
2018-05-07T07:51:08.537Z,2.60
2018-05-07T07:53:36.895Z,2.80
2018-05-07T07:56:05.184Z,2.83
2018-05-07T07:58:33.494Z,2.80
2018-05-07T08:01:06.281Z,2.62
2018-05-07T08:03:34.622Z,2.65
2018-05-07T08:06:02.971Z,3.00
2018-05-07T08:08:31.375Z,2.50
2018-05-07T08:10:59.708Z,2.70
2018-05-07T08:13:28.031Z,2.63
2018-05-07T08:15:56.409Z,1.90
2018-05-07T08:18:24.768Z,2.40
2018-05-07T08:20:58.394Z,2.40
2018-05-07T08:23:26.706Z,2.37
2018-05-07T08:26:01.274Z,2.70
2018-05-07T08:28:30.448Z,2.27
2018-05-07T08:30:58.768Z,2.60
2018-05-07T08:33:27.066Z,2.70
2018-05-07T08:35:55.597Z,2.33
2018-05-07T08:38:24.674Z,2.60
2018-05-07T08:40:52.960Z,2.87
2018-05-07T08:43:22.829Z,2.67
2018-05-07T08:45:51.129Z,2.47
2018-05-07T08:48:23.925Z,2.53
2018-05-07T08:50:53.231Z,2.50
2018-05-07T08:53:21.659Z,2.67
2018-05-07T08:55:54.245Z,2.47
2018-05-07T08:58:27.047Z,2.20
2018-05-07T09:00:55.386Z,2.50
2018-05-07T09:03:24.616Z,2.80
2018-05-07T09:05:53.011Z,2.83
2018-05-07T09:08:21.378Z,2.63
2018-05-07T09:10:49.695Z,2.60
2018-05-07T09:13:18.138Z,2.87
2018-05-07T09:15:46.504Z,2.73
2018-05-07T09:18:14.837Z,2.40
2018-05-07T09:20:43.922Z,2.30
2018-05-07T09:23:14.002Z,2.73
2018-05-07T09:25:42.644Z,2.60
2018-05-07T09:28:11.739Z,2.23
2018-05-07T09:30:44.422Z,2.47
2018-05-07T09:33:13.525Z,2.87
2018-05-07T09:35:43.397Z,2.60
2018-05-07T09:38:11.873Z,2.77
2018-05-07T09:40:41.183Z,2.60
2018-05-07T09:43:09.785Z,3.20
2018-05-07T09:45:39.008Z,2.60
2018-05-07T09:48:08.201Z,2.93
2018-05-07T09:50:36.509Z,2.60
2018-05-07T09:53:04.837Z,2.83
2018-05-07T09:55:33.189Z,2.97
2018-05-07T09:58:04.586Z,2.40
2018-05-07T10:00:37.379Z,2.60
2018-05-07T10:03:05.762Z,2.60
2018-05-07T10:05:34.872Z,2.67
2018-05-07T10:08:03.517Z,2.43
2018-05-07T10:10:31.845Z,2.57
2018-05-07T10:13:00.173Z,2.40
2018-05-07T10:15:29.261Z,2.50
2018-05-07T10:17:58.298Z,2.30
2018-05-07T10:20:26.785Z,2.43
2018-05-07T10:22:55.189Z,2.40
2018-05-07T10:25:23.509Z,2.33
2018-05-07T10:27:52.649Z,2.10
2018-05-07T10:30:21.023Z,1.90
2018-05-07T10:32:49.355Z,2.40
2018-05-07T10:35:22.407Z,1.90
2018-05-07T10:37:50.845Z,1.80
2018-05-07T10:40:19.302Z,2.37
2018-05-07T10:42:48.495Z,2.23
2018-05-07T10:45:16.747Z,2.13
2018-05-07T10:47:45.049Z,2.27
2018-05-07T10:50:14.197Z,1.90
2018-05-07T10:52:42.536Z,2.03
2018-05-07T10:55:12.310Z,2.37
2018-05-07T10:57:41.404Z,1.87
2018-05-07T11:00:09.713Z,2.00
2018-05-07T11:02:38.817Z,2.00
2018-05-07T11:05:08.343Z,1.70
2018-05-07T11:07:36.650Z,1.60
2018-05-07T11:10:04.950Z,1.80
2018-05-07T11:12:34.196Z,1.90
2018-05-07T11:15:03.470Z,2.07
2018-05-07T11:17:33.408Z,1.87
2018-05-07T11:20:01.692Z,1.63
2018-05-07T11:22:30.403Z,2.00
2018-05-07T11:24:58.729Z,1.63
2018-05-07T11:27:31.437Z,1.80
2018-05-07T11:30:00.477Z,1.53
2018-05-07T11:32:29.000Z,1.53
2018-05-07T11:34:57.324Z,1.60
2018-05-07T11:37:25.612Z,1.70
2018-05-07T11:39:53.957Z,1.40
2018-05-07T11:42:22.281Z,1.87
2018-05-07T11:44:50.673Z,1.40
2018-05-07T11:47:19.760Z,1.17
2018-05-07T11:49:48.131Z,1.80
2018-05-07T11:52:16.450Z,1.70
2018-05-07T11:54:45.708Z,1.70
2018-05-07T11:57:14.109Z,1.60
2018-05-07T11:59:43.258Z,1.60
2018-05-07T12:02:11.912Z,2.00
2018-05-07T12:04:40.221Z,1.67
2018-05-07T12:07:08.566Z,1.70
2018-05-07T12:09:36.863Z,1.80
2018-05-07T12:12:05.206Z,1.80
2018-05-07T12:14:36.187Z,1.87
2018-05-07T12:17:04.526Z,1.60
2018-05-07T12:19:33.577Z,1.93
2018-05-07T12:22:01.970Z,1.90
2018-05-07T12:24:30.321Z,1.73
2018-05-07T12:26:59.446Z,1.80
2018-05-07T12:29:27.790Z,1.70
2018-05-07T12:31:56.251Z,1.80
2018-05-07T12:34:28.685Z,1.80
2018-05-07T12:36:59.859Z,2.20
2018-05-07T12:39:29.790Z,2.20
2018-05-07T12:41:58.278Z,2.23
2018-05-07T12:44:26.667Z,1.97
2018-05-07T12:46:55.052Z,1.90
2018-05-07T12:49:23.461Z,2.13
2018-05-07T12:51:51.933Z,2.40
2018-05-07T12:54:20.336Z,2.50
2018-05-07T12:56:48.780Z,1.80
2018-05-07T12:59:17.701Z,2.07
2018-05-07T13:01:47.037Z,2.00
2018-05-07T13:04:19.423Z,1.83
2018-05-07T13:06:47.925Z,1.90
2018-05-07T13:09:16.806Z,2.00
2018-05-07T13:11:45.308Z,2.00
2018-05-07T13:14:13.859Z,2.10
2018-05-07T13:16:42.230Z,2.13
2018-05-07T13:19:10.750Z,1.80
2018-05-07T13:21:39.158Z,2.20
2018-05-07T13:24:07.499Z,1.77
2018-05-07T13:26:35.788Z,1.73
2018-05-07T13:29:04.265Z,1.80
2018-05-07T13:31:33.429Z,1.97
2018-05-07T13:34:01.925Z,1.60
2018-05-07T13:36:30.353Z,1.73
2018-05-07T13:38:58.847Z,1.70
2018-05-07T13:41:28.166Z,1.60
2018-05-07T13:43:57.269Z,1.40
2018-05-07T13:46:30.252Z,1.80
2018-05-07T13:48:59.708Z,1.63
2018-05-07T13:51:28.079Z,1.60
2018-05-07T13:53:56.544Z,1.40
2018-05-07T13:56:24.928Z,1.47
2018-05-07T13:58:53.362Z,2.00
2018-05-07T14:01:24.395Z,1.73
2018-05-07T14:03:52.753Z,1.60
2018-05-07T14:06:21.938Z,1.70
2018-05-07T14:08:50.294Z,1.90
2018-05-07T14:11:18.777Z,1.60
2018-05-07T14:13:47.229Z,1.90
2018-05-07T14:16:16.479Z,2.00
2018-05-07T14:18:44.955Z,1.60
2018-05-07T14:21:13.314Z,1.60
2018-05-07T14:23:41.697Z,1.53
2018-05-07T14:26:10.020Z,1.53
2018-05-07T14:28:38.317Z,1.73
2018-05-07T14:31:07.470Z,1.93
2018-05-07T14:33:36.559Z,2.50
2018-05-07T14:36:04.953Z,2.00
2018-05-07T14:38:33.275Z,2.17
2018-05-07T14:41:02.380Z,2.20
2018-05-07T14:43:32.283Z,2.03
2018-05-07T14:46:00.749Z,1.90
2018-05-07T14:48:29.949Z,1.90
2018-05-07T14:50:59.966Z,2.30
2018-05-07T14:53:32.645Z,2.10
2018-05-07T14:56:02.085Z,1.80
2018-05-07T14:58:31.346Z,1.97
2018-05-07T15:01:00.397Z,2.20
2018-05-07T15:03:29.337Z,2.37
2018-05-07T15:05:58.128Z,2.17
2018-05-07T15:08:28.598Z,2.30
2018-05-07T15:10:58.120Z,1.97
2018-05-07T15:13:28.660Z,2.10
2018-05-07T15:15:58.424Z,1.87
2018-05-07T15:18:28.343Z,1.80
2018-05-07T15:20:57.365Z,2.40
2018-05-07T15:23:26.766Z,1.77
2018-05-07T15:25:55.350Z,2.17
2018-05-07T15:28:23.942Z,2.10
2018-05-07T15:30:53.465Z,1.90
2018-05-07T15:33:26.697Z,1.97
2018-05-07T15:35:55.363Z,2.00
2018-05-07T15:38:24.111Z,2.57
2018-05-07T15:40:52.684Z,1.80
2018-05-07T15:43:21.921Z,2.03
2018-05-07T15:45:51.087Z,2.10
2018-05-07T15:48:19.837Z,1.97
2018-05-07T15:50:48.581Z,2.20
2018-05-07T15:53:17.883Z,2.10
2018-05-07T15:55:46.661Z,2.13
2018-05-07T15:58:15.218Z,2.10
2018-05-07T16:00:44.839Z,2.73
2018-05-07T16:03:16.506Z,2.17
2018-05-07T16:05:44.957Z,2.10
2018-05-07T16:08:14.659Z,1.90
2018-05-07T16:10:43.507Z,1.97
2018-05-07T16:13:12.224Z,3.50
2018-05-07T16:15:40.976Z,3.43
2018-05-07T16:18:09.757Z,4.03
2018-05-07T16:20:39.100Z,3.60
2018-05-07T16:23:08.896Z,3.57
2018-05-07T16:25:37.776Z,2.87
2018-05-07T16:28:07.362Z,2.27
2018-05-07T16:30:36.874Z,2.93
2018-05-07T16:33:05.684Z,2.00
2018-05-07T16:35:37.299Z,2.90
2018-05-07T16:38:11.020Z,2.33
2018-05-07T16:40:39.314Z,2.23
2018-05-07T16:43:07.687Z,2.00
2018-05-07T16:45:36.825Z,1.77
2018-05-07T16:48:06.816Z,1.90
2018-05-07T16:50:35.554Z,2.20
2018-05-07T16:53:04.217Z,2.50
2018-05-07T16:55:33.366Z,2.07
2018-05-07T16:58:02.032Z,2.00
2018-05-07T17:00:30.383Z,2.37
2018-05-07T17:02:59.492Z,1.93
2018-05-07T17:05:27.812Z,3.00
2018-05-07T17:07:57.239Z,2.40
2018-05-07T17:10:25.558Z,2.50
2018-05-07T17:12:53.905Z,2.53
2018-05-07T17:15:22.208Z,2.20
2018-05-07T17:17:51.991Z,2.33
2018-05-07T17:20:20.323Z,1.90
2018-05-07T17:22:49.533Z,2.00
2018-05-07T17:25:18.022Z,1.93
2018-05-07T17:27:46.563Z,2.23
2018-05-07T17:30:15.924Z,1.87
2018-05-07T17:32:44.753Z,1.87
2018-05-07T17:35:14.277Z,2.10
2018-05-07T17:37:42.996Z,1.70
2018-05-07T17:40:11.735Z,2.10
2018-05-07T17:42:41.072Z,2.00
2018-05-07T17:48:40.884Z,2.17
2018-05-07T17:51:09.240Z,1.93
2018-05-07T17:53:38.463Z,2.13
2018-05-07T17:56:06.870Z,2.00
2018-05-07T17:58:35.205Z,2.03
2018-05-07T18:01:09.214Z,2.00
2018-05-07T18:03:38.276Z,2.07
2018-05-07T18:06:07.672Z,1.97
2018-05-07T18:08:36.040Z,1.80
2018-05-07T18:11:04.339Z,2.07
2018-05-07T18:13:32.656Z,2.37
2018-05-07T18:16:05.921Z,1.67
2018-05-07T18:18:34.225Z,2.00
2018-05-07T18:21:03.378Z,2.47
2018-05-07T18:23:31.685Z,2.00
2018-05-07T18:26:00.777Z,2.27
2018-05-07T18:28:29.825Z,2.10
2018-05-07T18:30:58.151Z,2.17
2018-05-07T18:33:27.215Z,2.63
2018-05-07T18:35:55.537Z,2.13
2018-05-07T18:38:24.629Z,2.53
2018-05-07T18:40:53.722Z,2.20
2018-05-07T18:43:22.960Z,2.30
2018-05-07T18:45:51.433Z,2.20
2018-05-07T18:48:19.987Z,2.10
2018-05-07T18:50:49.294Z,2.20
2018-05-07T18:53:18.343Z,2.40
2018-05-07T18:55:46.909Z,2.10
2018-05-07T18:58:15.209Z,2.23
2018-05-07T19:00:44.393Z,2.13
2018-05-07T19:03:12.717Z,2.20
2018-05-07T19:05:41.808Z,2.20
2018-05-07T19:08:10.937Z,2.10
2018-05-07T19:10:39.272Z,2.27
2018-05-07T19:13:07.648Z,3.00
2018-05-07T19:15:35.998Z,2.07
2018-05-07T19:18:04.397Z,2.17
2018-05-07T19:20:33.092Z,2.17
2018-05-07T19:23:01.681Z,2.23
2018-05-07T19:25:31.018Z,2.30
2018-05-07T19:27:59.435Z,2.17
2018-05-07T19:30:27.943Z,4.00
2018-05-07T19:32:56.436Z,1.90
2018-05-07T19:35:24.929Z,2.00
2018-05-07T19:37:58.364Z,2.70
2018-05-07T19:40:26.792Z,2.80
2018-05-07T19:42:55.911Z,2.53
2018-05-07T19:45:25.060Z,2.20
2018-05-07T19:47:53.439Z,2.33
2018-05-07T19:50:21.877Z,2.43
2018-05-07T19:52:50.309Z,2.30
2018-05-07T19:55:19.515Z,3.20
2018-05-07T19:57:48.369Z,2.40
2018-05-07T20:00:16.816Z,2.10
2018-05-07T20:02:45.251Z,2.70
2018-05-07T20:05:13.659Z,2.63
2018-05-07T20:07:42.766Z,2.57
2018-05-07T20:10:11.988Z,2.40
2018-05-07T20:12:44.141Z,3.50
2018-05-07T20:15:13.258Z,3.20
2018-05-07T20:17:41.602Z,2.70
2018-05-07T20:20:10.713Z,2.50
2018-05-07T20:22:39.991Z,2.37
2018-05-07T20:25:08.489Z,2.30
2018-05-07T20:27:37.653Z,2.63
2018-05-07T20:30:05.985Z,2.50
2018-05-07T20:32:34.445Z,2.40
2018-05-07T20:35:03.065Z,2.50
2018-05-07T20:37:31.526Z,2.53
2018-05-07T20:40:00.141Z,2.20
2018-05-07T20:42:28.592Z,2.70
2018-05-07T20:44:57.024Z,2.17
2018-05-07T20:47:25.431Z,2.93
2018-05-07T20:49:55.135Z,2.97
2018-05-07T20:52:23.413Z,2.50
2018-05-07T20:54:52.374Z,2.57
2018-05-07T20:57:20.794Z,3.00
2018-05-07T20:59:51.627Z,3.00
2018-05-07T21:02:19.954Z,2.67
2018-05-07T21:04:48.374Z,3.33
2018-05-07T21:07:20.821Z,3.00
2018-05-07T21:09:51.026Z,2.70
2018-05-07T21:12:19.413Z,2.97
2018-05-07T21:14:47.764Z,2.50
2018-05-07T21:17:16.554Z,2.57
2018-05-07T21:19:44.940Z,2.40
2018-05-07T21:22:13.837Z,2.47
2018-05-07T21:24:47.633Z,4.10
2018-05-07T21:27:15.983Z,2.40
2018-05-07T21:29:49.222Z,2.90
2018-05-07T21:32:17.497Z,3.00
2018-05-07T21:34:45.826Z,2.60
2018-05-07T21:37:14.872Z,2.70
2018-05-07T21:39:47.466Z,2.80
2018-05-07T21:42:16.713Z,2.87
2018-05-07T21:44:45.858Z,2.67
2018-05-07T21:47:14.300Z,2.77
2018-05-07T21:49:43.532Z,3.80
2018-05-07T21:52:11.919Z,2.50
2018-05-07T21:54:40.232Z,2.47
2018-05-07T21:57:08.782Z,3.23
2018-05-07T21:59:37.149Z,3.33
2018-05-07T22:02:05.454Z,3.17
2018-05-07T22:04:33.787Z,3.27
2018-05-07T22:07:02.099Z,3.53
2018-05-07T22:09:34.935Z,2.97
2018-05-07T22:12:03.238Z,3.30
2018-05-07T22:14:31.542Z,3.10
2018-05-07T22:16:59.882Z,3.43
2018-05-07T22:19:28.220Z,4.97
2018-05-07T22:21:56.837Z,14.10
2018-05-07T22:24:25.123Z,4.67
2018-05-07T22:26:53.449Z,3.57
2018-05-07T22:29:21.714Z,3.30
2018-05-07T22:31:50.050Z,3.30
2018-05-07T22:34:22.308Z,3.40
2018-05-07T22:36:51.414Z,2.97
2018-05-07T22:39:30.859Z,3.20
2018-05-07T22:41:59.556Z,3.40
2018-05-07T22:44:27.982Z,3.03
2018-05-07T22:46:56.302Z,2.53
2018-05-07T22:49:24.696Z,2.93
2018-05-07T22:51:53.285Z,3.17
2018-05-07T22:54:21.618Z,3.10
2018-05-07T22:56:50.723Z,3.30
2018-05-07T22:59:19.845Z,3.17
2018-05-07T23:01:48.250Z,2.80
2018-05-07T23:04:16.496Z,3.37
2018-05-07T23:06:44.823Z,3.43
2018-05-07T23:09:13.153Z,10.13
2018-05-07T23:11:41.521Z,16.97
2018-05-07T23:14:09.882Z,4.90
2018-05-07T23:16:38.935Z,4.40
2018-05-07T23:19:07.272Z,3.67
2018-05-07T23:21:35.552Z,4.20
2018-05-07T23:24:04.203Z,3.20
2018-05-07T23:26:32.516Z,3.60
2018-05-07T23:29:00.827Z,3.50
2018-05-07T23:31:33.334Z,2.83
2018-05-07T23:34:01.655Z,2.70
2018-05-07T23:36:34.266Z,3.23
2018-05-07T23:39:02.667Z,2.87
2018-05-07T23:41:32.104Z,2.83
2018-05-07T23:44:00.421Z,3.00
2018-05-07T23:46:29.593Z,2.80
2018-05-07T23:48:57.998Z,2.30
2018-05-07T23:51:26.332Z,3.27
2018-05-07T23:53:58.797Z,2.83
2018-05-07T23:56:27.839Z,2.90
2018-05-07T23:58:56.140Z,2.80
